Time;durP1;ratioP1;P1;durP2;ratioP2;P2;SDS_P1;SDS_P2;PMS_P1;PMS_P2;Temp;Humidity;BMP_temperature;BMP_pressure;BME280_temperature;BME280_humidity;BME280_pressure;Samples;Min_cycle;Max_cycle;Signal;HPM_P1;HPM_P2
2024/03/14 00:02:25;;;;;;;7.00;6.27;;;;;9.80;100943.00;;;;9987801;29;20229;-82
2024/03/14 00:07:26;;;;;;;8.47;6.30;;;;;9.70;100949.00;;;;9958023;29;20330;-83
2024/03/14 00:12:27;;;;;;;8.00;6.23;;;;;9.60;100941.00;;;;9953264;29;20237;-83
2024/03/14 00:17:28;;;;;;;7.60;6.67;;;;;9.60;100941.00;;;;9976146;29;20991;-77
2024/03/14 00:22:30;;;;;;;7.80;5.93;;;;;9.50;100947.00;;;;9969847;29;20245;-79
2024/03/14 00:27:32;;;;;;;8.50;7.07;;;;;9.50;100949.00;;;;9964925;29;20270;-79
2024/03/14 00:32:33;;;;;;;7.80;7.00;;;;;9.50;100948.00;;;;9946508;29;20270;-78
2024/03/14 00:37:35;;;;;;;8.50;6.73;;;;;9.60;100944.00;;;;9943310;29;20297;-78
2024/03/14 00:42:37;;;;;;;8.80;6.90;;;;;9.60;100936.00;;;;9967747;29;20234;-78
2024/03/14 00:47:38;;;;;;;8.40;7.50;;;;;9.50;100943.00;;;;10003323;29;20317;-79
2024/03/14 00:52:40;;;;;;;9.13;7.10;;;;;9.40;100930.00;;;;9963790;29;20580;-79
2024/03/14 00:57:41;;;;;;;8.07;7.03;;;;;9.40;100926.00;;;;9973768;29;20248;-80
2024/03/14 01:02:43;;;;;;;9.40;7.83;;;;;9.50;100920.00;;;;10004120;29;20262;-79
2024/03/14 01:07:45;;;;;;;10.73;7.40;;;;;9.50;100912.00;;;;9972275;29;20240;-79
2024/03/14 01:12:46;;;;;;;8.13;7.33;;;;;9.60;100913.00;;;;9974915;29;20328;-79
2024/03/14 01:17:48;;;;;;;8.80;7.90;;;;;9.60;100899.00;;;;9977360;29;20237;-79
2024/03/14 01:22:50;;;;;;;10.90;7.80;;;;;9.60;100901.00;;;;9971047;29;20229;-78
2024/03/14 01:27:51;;;;;;;9.07;7.40;;;;;9.70;100903.00;;;;9987948;29;20236;-82
2024/03/14 01:32:52;;;;;;;10.03;7.73;;;;;9.60;100897.00;;;;9945774;29;20589;-83
2024/03/14 01:37:53;;;;;;;9.17;7.73;;;;;9.60;100896.00;;;;9960884;29;20241;-82
2024/03/14 01:42:55;;;;;;;10.03;8.13;;;;;9.50;100890.00;;;;9976580;29;20230;-82
2024/03/14 01:47:58;;;;;;;9.77;7.17;;;;;9.60;100888.00;;;;9950654;29;20285;-82
2024/03/14 01:52:59;;;;;;;8.80;7.67;;;;;9.60;100882.00;;;;9967713;29;20752;-82
2024/03/14 01:58:01;;;;;;;7.70;6.90;;;;;9.70;100877.00;;;;9985474;29;20324;-83
2024/03/14 02:03:03;;;;;;;10.47;7.70;;;;;9.60;100874.00;;;;9973206;29;20236;-82
2024/03/14 02:08:04;;;;;;;8.20;6.70;;;;;9.60;100870.00;;;;9950373;29;20318;-82
2024/03/14 02:13:06;;;;;;;9.23;7.63;;;;;9.50;100872.00;;;;9980038;29;20265;-83
2024/03/14 02:18:08;;;;;;;9.57;7.00;;;;;9.40;100865.00;;;;9978780;29;20312;-83
2024/03/14 02:23:10;;;;;;;7.37;6.67;;;;;9.30;100868.00;;;;9943391;29;20265;-82
2024/03/14 02:28:13;;;;;;;6.90;6.20;;;;;9.30;100857.00;;;;9995834;29;20249;-82
2024/03/14 02:33:14;;;;;;;7.77;6.03;;;;;9.30;100847.00;;;;9957777;29;20221;-82
2024/03/14 02:38:16;;;;;;;7.60;6.53;;;;;9.30;100854.00;;;;9975356;29;20241;-80
2024/03/14 02:43:17;;;;;;;7.70;5.77;;;;;9.20;100850.00;;;;9963972;29;20237;-80
2024/03/14 02:48:18;;;;;;;6.93;6.20;;;;;9.20;100839.00;;;;9966681;29;20585;-81
2024/03/14 02:53:19;;;;;;;7.07;6.23;;;;;9.20;100834.00;;;;9961817;29;20225;-80
2024/03/14 02:58:21;;;;;;;6.50;5.80;;;;;9.20;100825.00;;;;9986848;29;20289;-80
2024/03/14 03:03:22;;;;;;;6.60;5.37;;;;;9.20;100832.00;;;;10003768;29;20692;-80
2024/03/14 03:08:23;;;;;;;7.07;5.50;;;;;9.10;100822.00;;;;9967401;29;20225;-80
2024/03/14 03:13:24;;;;;;;5.80;5.30;;;;;9.10;100821.00;;;;9964566;29;20317;-81
2024/03/14 03:18:26;;;;;;;7.70;5.77;;;;;9.00;100809.00;;;;9967021;29;20312;-80
2024/03/14 03:23:28;;;;;;;5.73;4.97;;;;;9.00;100814.00;;;;9976960;29;20229;-81
2024/03/14 03:28:30;;;;;;;5.80;5.13;;;;;8.80;100811.00;;;;9958899;29;20384;-81
2024/03/14 03:33:31;;;;;;;7.40;5.10;;;;;8.80;100806.00;;;;9959442;29;20748;-81
2024/03/14 03:38:36;;;;;;;5.53;5.03;;;;;8.70;100801.00;;;;9983042;29;20253;-81
2024/03/14 03:43:37;;;;;;;6.57;5.30;;;;;8.60;100798.00;;;;9966165;29;20241;-81
2024/03/14 03:48:39;;;;;;;6.90;5.00;;;;;8.60;100802.00;;;;9966483;29;20229;-81
2024/03/14 03:53:40;;;;;;;5.90;4.90;;;;;8.60;100797.00;;;;9977262;29;20229;-80
2024/03/14 03:58:42;;;;;;;8.87;5.27;;;;;8.60;100783.00;;;;9962153;29;20683;-78
2024/03/14 04:03:43;;;;;;;6.67;5.97;;;;;8.50;100795.00;;;;9964444;29;20225;-78
2024/03/14 04:08:45;;;;;;;5.77;5.17;;;;;8.50;100791.00;;;;9964292;29;20232;-78
2024/03/14 04:13:46;;;;;;;6.10;5.07;;;;;8.40;100785.00;;;;9967783;29;20264;-79
2024/03/14 04:18:47;;;;;;;7.73;5.60;;;;;8.20;100784.00;;;;9999048;29;20245;-78
2024/03/14 04:23:48;;;;;;;6.00;5.40;;;;;8.10;100783.00;;;;9985049;29;20226;-79
2024/03/14 04:28:49;;;;;;;8.13;5.23;;;;;8.00;100783.00;;;;9982959;29;20264;-78
2024/03/14 04:33:51;;;;;;;5.70;5.10;;;;;8.00;100784.00;;;;9981200;29;20239;-78
2024/03/14 04:38:52;;;;;;;7.13;5.93;;;;;7.90;100782.00;;;;9986577;29;20859;-78
2024/03/14 04:43:53;;;;;;;8.90;6.23;;;;;7.90;100773.00;;;;9954793;29;20259;-78
2024/03/14 04:48:54;;;;;;;7.40;6.27;;;;;7.90;100767.00;;;;9957014;29;20308;-78
2024/03/14 04:53:57;;;;;;;7.57;6.10;;;;;7.90;100774.00;;;;9998369;29;20289;-79
2024/03/14 04:58:58;;;;;;;8.27;7.47;;;;;7.90;100771.00;;;;9971235;29;20237;-79
2024/03/14 05:03:59;;;;;;;9.37;6.53;;;;;7.80;100768.00;;;;9943386;29;20238;-79
2024/03/14 05:09:01;;;;;;;8.20;7.17;;;;;7.70;100767.00;;;;9959299;29;20238;-82
2024/03/14 05:14:02;;;;;;;9.27;6.80;;;;;7.60;100764.00;;;;9972510;29;20290;-82
2024/03/14 05:19:04;;;;;;;8.07;6.93;;;;;7.50;100770.00;;;;9960257;29;20317;-82
2024/03/14 05:24:05;;;;;;;8.97;6.53;;;;;7.50;100766.00;;;;9987983;29;20229;-82
2024/03/14 05:29:06;;;;;;;7.73;6.80;;;;;7.40;100757.00;;;;9957507;29;20282;-81
2024/03/14 05:34:08;;;;;;;7.27;6.20;;;;;7.40;100755.00;;;;9967090;29;20276;-82
2024/03/14 05:39:09;;;;;;;8.30;6.57;;;;;7.40;100759.00;;;;9965168;29;20229;-82
2024/03/14 05:44:11;;;;;;;10.10;6.80;;;;;7.30;100767.00;;;;10008456;29;20233;-82
2024/03/14 05:49:12;;;;;;;7.37;6.50;;;;;7.30;100759.00;;;;9959307;29;20312;-82
2024/03/14 05:54:14;;;;;;;8.73;7.03;;;;;7.30;100766.00;;;;10000627;29;20846;-81
2024/03/14 05:59:15;;;;;;;7.23;6.10;;;;;7.20;100768.00;;;;9982268;29;20877;-82
2024/03/14 06:04:17;;;;;;;10.33;6.97;;;;;7.40;100774.00;;;;9952202;29;20300;-82
2024/03/14 06:09:31;;;;;;;9.70;7.07;;;;;7.40;100766.00;;;;9993734;29;20238;-81
2024/03/14 06:14:32;;;;;;;9.20;7.40;;;;;7.40;100766.00;;;;9966106;29;20237;-82
2024/03/14 06:19:33;;;;;;;8.20;7.13;;;;;7.40;100783.00;;;;9973792;29;20229;-80
2024/03/14 06:24:35;;;;;;;9.60;7.00;;;;;7.40;100765.00;;;;9975548;29;20233;-78
2024/03/14 06:29:37;;;;;;;7.93;7.13;;;;;7.50;100769.00;;;;9943298;29;20249;-78
2024/03/14 06:34:38;;;;;;;8.80;7.53;;;;;7.50;100767.00;;;;9980380;29;20233;-79
2024/03/14 06:39:40;;;;;;;9.80;6.77;;;;;7.70;100777.00;;;;9945553;29;20719;-80
2024/03/14 06:44:44;;;;;;;10.00;8.33;;;;;8.00;100774.00;;;;9979362;29;20310;-79
2024/03/14 06:49:45;;;;;;;8.90;7.13;;;;;8.10;100772.00;;;;9982496;29;21025;-78
2024/03/14 06:54:48;;;;;;;6.47;5.87;;;;;8.10;100775.00;;;;9981108;29;20270;-79
2024/03/14 06:59:52;;;;;;;10.60;5.93;;;;;8.30;100776.00;;;;9946321;29;20229;-79
2024/03/14 07:04:56;;;;;;;6.83;5.83;;;;;8.40;100774.00;;;;9997876;29;20652;-78
2024/03/14 07:09:57;;;;;;;9.27;5.80;;;;;8.90;100777.00;;;;9979814;29;20249;-78
2024/03/14 07:14:59;;;;;;;7.30;5.40;;;;;9.40;100773.00;;;;9942914;29;20244;-79
2024/03/14 07:20:09;;;;;;;5.30;4.50;;;;;9.90;100773.00;;;;9963314;29;20237;-79
2024/03/14 07:25:13;;;;;;;4.60;3.47;;;;;10.40;100770.00;;;;9985450;29;20245;-79
2024/03/14 07:30:17;;;;;;;5.93;3.60;;;;;10.90;100772.00;;;;9947548;29;20312;-80
2024/03/14 07:35:19;;;;;;;4.10;3.10;;;;;11.00;100767.00;;;;9948864;29;20237;-80
2024/03/14 07:40:26;;;;;;;5.37;3.23;;;;;11.30;100767.00;;;;9955894;29;20228;-80
2024/03/14 07:45:27;;;;;;;4.37;3.07;;;;;11.70;100757.00;;;;9972632;29;20238;-80
2024/03/14 07:50:28;;;;;;;6.05;2.65;;;;;12.10;100756.00;;;;9953166;29;20241;-80
2024/03/14 07:55:30;;;;;;;5.63;2.97;;;;;12.20;100761.00;;;;9943630;29;20237;-80
2024/03/14 08:00:33;;;;;;;3.08;2.10;;;;;12.70;100752.00;;;;9973956;29;20778;-79
2024/03/14 08:05:34;;;;;;;2.55;1.92;;;;;12.90;100757.00;;;;9958780;29;20242;-80
2024/03/14 08:10:39;;;;;;;3.10;1.85;;;;;13.10;100764.00;;;;9964236;29;20245;-80
2024/03/14 08:15:50;;;;;;;1.98;1.77;;;;;13.50;100760.00;;;;9957977;29;20241;-80
2024/03/14 08:20:56;;;;;;;3.40;1.48;;;;;13.90;100757.00;;;;9972600;29;20230;-80
2024/03/14 08:25:59;;;;;;;2.35;1.70;;;;;14.30;100755.00;;;;9954541;29;20237;-81
2024/03/14 08:31:02;;;;;;;1.77;1.40;;;;;14.20;100756.00;;;;9952972;29;20277;-80
2024/03/14 08:36:04;;;;;;;1.65;1.50;;;;;14.00;100751.00;;;;9956425;29;20320;-81
2024/03/14 08:41:05;;;;;;;1.58;1.27;;;;;13.90;100762.00;;;;9957260;29;20249;-83
2024/03/14 08:46:07;;;;;;;3.50;1.50;;;;;13.80;100758.00;;;;9984200;29;20245;-84
2024/03/14 08:51:08;;;;;;;1.35;1.25;;;;;13.70;100756.00;;;;9951116;29;20262;-82
2024/03/14 08:56:09;;;;;;;5.72;1.55;;;;;14.30;100755.00;;;;9967323;29;20234;-82
2024/03/14 09:01:10;;;;;;;2.10;1.30;;;;;15.00;100746.00;;;;9951091;29;21056;-83
2024/03/14 09:06:14;;;;;;;1.92;1.35;;;;;15.40;100733.00;;;;9963490;29;20287;-83
2024/03/14 09:11:19;;;;;;;6.43;1.42;;;;;16.00;100734.00;;;;9964784;29;20321;-83
2024/03/14 09:16:21;;;;;;;2.03;1.00;;;;;15.60;100740.00;;;;9953341;29;20531;-84
2024/03/14 09:21:28;;;;;;;6.63;1.40;;;;;15.80;100727.00;;;;10001702;29;20232;-82
2024/03/14 09:26:29;;;;;;;4.15;1.33;;;;;16.60;100719.00;;;;9970380;29;20272;-82
2024/03/14 09:31:30;;;;;;;1.27;0.98;;;;;17.20;100717.00;;;;9985624;29;20238;-83
2024/03/14 09:36:31;;;;;;;2.65;1.13;;;;;17.50;100711.00;;;;9985954;29;20244;-82
2024/03/14 09:41:33;;;;;;;5.65;1.15;;;;;17.90;100699.00;;;;9983426;29;20847;-82
2024/03/14 09:46:36;;;;;;;3.05;1.15;;;;;18.20;100705.00;;;;9964398;29;20919;-82
2024/03/14 09:51:37;;;;;;;1.88;1.10;;;;;18.50;100696.00;;;;9961296;29;20233;-81
2024/03/14 09:56:39;;;;;;;2.83;0.93;;;;;18.90;100688.00;;;;9971765;29;20241;-82
2024/03/14 10:01:44;;;;;;;3.15;1.30;;;;;19.40;100697.00;;;;9985172;29;20294;-82
2024/03/14 10:06:45;;;;;;;2.35;1.00;;;;;19.70;100692.00;;;;9960028;29;20240;-82
2024/03/14 10:11:47;;;;;;;2.00;1.40;;;;;19.80;100695.00;;;;9951246;29;20312;-82
2024/03/14 10:16:51;;;;;;;3.13;0.93;;;;;20.00;100688.00;;;;9982381;29;20233;-82
2024/03/14 10:21:53;;;;;;;2.92;1.05;;;;;20.30;100682.00;;;;9954755;29;20304;-82
2024/03/14 10:26:57;;;;;;;3.53;1.02;;;;;20.40;100683.00;;;;9974486;29;20317;-81
2024/03/14 10:32:00;;;;;;;1.63;0.95;;;;;20.60;100675.00;;;;9972779;29;20241;-82
2024/03/14 10:37:06;;;;;;;3.10;1.08;;;;;20.70;100677.00;;;;9951509;29;20682;-82
2024/03/14 10:42:08;;;;;;;1.45;0.90;;;;;20.70;100677.00;;;;9992915;29;20329;-82
2024/03/14 10:47:10;;;;;;;3.28;1.20;;;;;20.80;100676.00;;;;9968928;29;20234;-82
2024/03/14 10:52:14;;;;;;;2.83;1.17;;;;;21.10;100673.00;;;;9994175;29;20238;-82
2024/03/14 10:57:16;;;;;;;3.45;1.00;;;;;21.20;100671.00;;;;9946751;29;20252;-82
2024/03/14 11:02:17;;;;;;;3.78;1.13;;;;;21.50;100667.00;;;;9978125;29;20320;-79
2024/03/14 11:07:19;;;;;;;2.13;1.00;;;;;21.40;100658.00;;;;9963566;29;20232;-78
2024/03/14 11:12:23;;;;;;;2.67;1.10;;;;;21.10;100649.00;;;;9952483;29;20667;-79
2024/03/14 11:17:24;;;;;;;1.65;0.98;;;;;21.40;100632.00;;;;9973995;29;20237;-80
2024/03/14 11:22:26;;;;;;;3.60;1.25;;;;;21.50;100632.00;;;;9962590;29;20260;-80
2024/03/14 11:27:29;;;;;;;2.28;0.98;;;;;21.40;100612.00;;;;9965934;29;20582;-80
2024/03/14 11:32:33;;;;;;;5.00;0.88;;;;;21.70;100613.00;;;;9987772;29;20233;-81
2024/03/14 11:37:49;;;;;;;2.05;1.02;;;;;22.10;100613.00;;;;9982745;29;20314;-81
2024/03/14 11:42:54;;;;;;;1.75;1.10;;;;;22.30;100604.00;;;;9962429;29;20680;-78
2024/03/14 11:47:55;;;;;;;3.03;1.30;;;;;22.20;100608.00;;;;9969504;29;20313;-81
2024/03/14 11:52:57;;;;;;;3.53;1.35;;;;;21.40;100591.00;;;;9946026;29;20229;-83
2024/03/14 11:58:05;;;;;;;2.10;1.13;;;;;22.30;100593.00;;;;9994657;29;20233;-81
2024/03/14 12:03:07;;;;;;;2.85;1.10;;;;;23.00;100589.00;;;;9948407;29;20275;-81
2024/03/14 12:08:13;;;;;;;3.08;1.02;;;;;22.40;100589.00;;;;9955447;29;20245;-83
2024/03/14 12:13:16;;;;;;;3.90;1.45;;;;;22.30;100574.00;;;;9986884;29;20287;-83
2024/03/14 12:18:17;;;;;;;2.30;1.52;;;;;21.80;100562.00;;;;9970689;29;20237;-83
2024/03/14 12:23:18;;;;;;;2.15;1.50;;;;;21.40;100545.00;;;;9975124;29;20352;-82
2024/03/14 12:28:20;;;;;;;4.18;1.30;;;;;21.30;100540.00;;;;9978924;29;20316;-83
2024/03/14 12:33:21;;;;;;;6.35;1.40;;;;;21.20;100532.00;;;;9956980;29;20229;-81
2024/03/14 12:38:23;;;;;;;3.63;1.30;;;;;21.00;100519.00;;;;9995478;29;20588;-82
2024/03/14 12:43:27;;;;;;;4.10;1.30;;;;;20.80;100501.00;;;;9969424;29;20229;-80
2024/03/14 12:48:29;;;;;;;2.55;1.10;;;;;21.00;100500.00;;;;9998314;29;21078;-81
2024/03/14 12:53:32;;;;;;;2.25;1.48;;;;;21.60;100490.00;;;;9963935;29;20264;-81
2024/03/14 12:58:34;;;;;;;3.67;1.17;;;;;21.80;100487.00;;;;10000233;29;20300;-80
2024/03/14 13:03:37;;;;;;;2.60;1.50;;;;;21.70;100493.00;;;;9970113;29;20273;-81
2024/03/14 13:08:39;;;;;;;3.50;1.35;;;;;21.90;100475.00;;;;9967191;29;20237;-81
2024/03/14 13:13:42;;;;;;;2.50;1.67;;;;;22.30;100476.00;;;;9978199;29;20236;-80
2024/03/14 13:18:43;;;;;;;5.68;1.52;;;;;22.10;100465.00;;;;9970755;29;20309;-83
2024/03/14 13:23:45;;;;;;;4.40;1.30;;;;;22.20;100456.00;;;;9973139;29;20225;-82
2024/03/14 13:28:47;;;;;;;1.90;1.23;;;;;22.10;100453.00;;;;9962355;29;20369;-83
2024/03/14 13:33:48;;;;;;;1.92;1.02;;;;;22.20;100444.00;;;;9965072;29;20237;-84
2024/03/14 13:38:49;;;;;;;1.40;1.10;;;;;22.30;100432.00;;;;9985617;29;20556;-82
2024/03/14 13:43:51;;;;;;;1.75;0.82;;;;;21.90;100435.00;;;;9969423;29;20871;-85
2024/03/14 13:48:53;;;;;;;2.33;1.13;;;;;22.20;100418.00;;;;9951251;29;20247;-82
2024/03/14 13:53:56;;;;;;;3.03;1.25;;;;;22.30;100406.00;;;;9988130;29;20693;-82
2024/03/14 13:59:01;;;;;;;3.10;0.80;;;;;23.10;100377.00;;;;9972751;29;20868;-81
2024/03/14 14:04:03;;;;;;;2.50;0.82;;;;;23.20;100386.00;;;;9998985;29;20328;-82
2024/03/14 14:09:07;;;;;;;2.03;1.15;;;;;24.30;100368.00;;;;9973835;29;20879;-81
2024/03/14 14:14:08;;;;;;;0.60;0.52;;;;;23.10;100366.00;;;;9961445;29;20269;-81
2024/03/14 14:19:10;;;;;;;2.42;0.77;;;;;23.40;100359.00;;;;9961208;29;20240;-81
2024/03/14 14:24:11;;;;;;;1.67;0.90;;;;;23.40;100347.00;;;;9982120;29;20249;-83
2024/03/14 14:29:15;;;;;;;1.90;1.00;;;;;22.70;100336.00;;;;9965973;29;20248;-80
2024/03/14 14:34:18;;;;;;;0.52;0.50;;;;;22.70;100343.00;;;;9974578;29;20241;-80
2024/03/14 14:39:19;;;;;;;1.75;0.68;;;;;21.90;100349.00;;;;9978699;29;21128;-82
2024/03/14 14:44:21;;;;;;;0.50;0.50;;;;;21.40;100352.00;;;;9972530;29;20676;-81
2024/03/14 14:49:23;;;;;;;3.38;1.13;;;;;21.10;100341.00;;;;9928283;29;20269;-80
2024/03/14 14:54:24;;;;;;;2.53;0.90;;;;;20.60;100345.00;;;;9941138;29;20241;-81
2024/03/14 14:59:29;;;;;;;1.17;0.73;;;;;20.80;100341.00;;;;9950859;29;20261;-81
2024/03/14 15:04:31;;;;;;;1.95;0.80;;;;;20.60;100332.00;;;;9963378;29;20293;-81
2024/03/14 15:09:32;;;;;;;1.73;0.73;;;;;20.50;100335.00;;;;9971795;29;20328;-81
2024/03/14 15:14:37;;;;;;;3.35;1.15;;;;;20.20;100335.00;;;;9987723;29;20243;-81
2024/03/14 15:19:40;;;;;;;1.38;0.80;;;;;20.10;100337.00;;;;9971173;29;20241;-81
2024/03/14 15:24:43;;;;;;;1.90;1.00;;;;;19.80;100332.00;;;;9977701;29;20237;-80
2024/03/14 15:29:45;;;;;;;2.22;0.75;;;;;19.50;100322.00;;;;9973533;29;20225;-80
2024/03/14 15:34:46;;;;;;;3.22;1.10;;;;;19.40;100330.00;;;;9971744;29;20232;-80
2024/03/14 15:39:47;;;;;;;1.20;0.90;;;;;19.20;100322.00;;;;9970244;29;20799;-82
2024/03/14 15:44:49;;;;;;;2.97;1.17;;;;;19.20;100314.00;;;;9962081;29;20226;-82
2024/03/14 15:49:50;;;;;;;4.10;1.10;;;;;19.10;100315.00;;;;9956525;29;20225;-81
2024/03/14 15:54:52;;;;;;;1.10;0.90;;;;;19.00;100309.00;;;;9950272;29;20259;-82
2024/03/14 15:59:53;;;;;;;1.58;0.73;;;;;18.70;100311.00;;;;9958579;29;20233;-81
2024/03/14 16:04:54;;;;;;;1.63;0.93;;;;;18.50;100317.00;;;;9980414;29;20341;-81
2024/03/14 16:09:56;;;;;;;2.15;1.05;;;;;18.40;100322.00;;;;9979522;29;20252;-82
2024/03/14 16:14:57;;;;;;;1.50;0.70;;;;;18.30;100321.00;;;;9958167;29;20225;-82
2024/03/14 16:20:11;;;;;;;2.45;0.75;;;;;18.10;100315.00;;;;9944645;29;20233;-81
2024/03/14 16:25:17;;;;;;;2.05;0.75;;;;;17.90;100316.00;;;;9960194;29;20233;-82
2024/03/14 16:30:19;;;;;;;3.20;0.90;;;;;17.80;100316.00;;;;9972574;29;20312;-82
2024/03/14 16:35:31;;;;;;;3.05;0.80;;;;;17.70;100316.00;;;;9967265;29;20232;-82
2024/03/14 16:40:32;;;;;;;4.55;1.20;;;;;17.70;100316.00;;;;9955283;29;20233;-82
2024/03/14 16:45:34;;;;;;;2.45;0.93;;;;;17.60;100320.00;;;;9988139;29;20241;-83
2024/03/14 16:50:36;;;;;;;6.07;1.40;;;;;17.50;100324.00;;;;9993640;29;20235;-80
2024/03/14 16:55:37;;;;;;;3.58;1.00;;;;;17.50;100323.00;;;;9988046;29;20241;-81
2024/03/14 17:00:39;;;;;;;1.40;1.00;;;;;17.40;100339.00;;;;9989874;29;20233;-81
2024/03/14 17:05:40;;;;;;;7.43;3.33;;;;;17.20;100331.00;;;;9970078;29;20290;-81
2024/03/14 17:10:41;;;;;;;3.00;1.35;;;;;17.00;100334.00;;;;9980699;29;20316;-82
2024/03/14 17:15:43;;;;;;;2.55;1.52;;;;;16.80;100325.00;;;;9966590;29;20233;-81
2024/03/14 17:20:45;;;;;;;4.38;1.33;;;;;16.60;100320.00;;;;9962380;29;20224;-81
2024/03/14 17:25:47;;;;;;;4.43;2.95;;;;;16.50;100334.00;;;;9961915;29;20242;-82
2024/03/14 17:30:48;;;;;;;3.53;1.30;;;;;16.30;100332.00;;;;9964188;29;20237;-81
2024/03/14 17:35:50;;;;;;;3.78;1.30;;;;;16.20;100323.00;;;;9979653;29;20836;-81
2024/03/14 17:40:52;;;;;;;2.80;1.33;;;;;16.00;100331.00;;;;9983412;29;20905;-82
2024/03/14 17:45:53;;;;;;;1.42;1.08;;;;;15.90;100316.00;;;;9983817;29;20260;-82
2024/03/14 17:50:55;;;;;;;2.63;1.35;;;;;15.70;100316.00;;;;9980332;29;20221;-81
2024/03/14 17:55:56;;;;;;;1.50;1.15;;;;;15.50;100330.00;;;;9990558;29;20241;-82
2024/03/14 18:00:57;;;;;;;4.10;1.48;;;;;15.40;100321.00;;;;9967373;29;20260;-82
2024/03/14 18:05:59;;;;;;;4.75;1.40;;;;;15.30;100325.00;;;;9941764;29;20249;-82
2024/03/14 18:11:03;;;;;;;4.47;1.40;;;;;15.20;100311.00;;;;9973809;29;20236;-82
2024/03/14 18:16:06;;;;;;;3.85;1.95;;;;;15.20;100304.00;;;;9945384;29;20308;-82
2024/03/14 18:21:07;;;;;;;5.30;2.22;;;;;15.20;100314.00;;;;9958513;29;20253;-83
2024/03/14 18:26:15;;;;;;;2.50;1.70;;;;;15.10;100326.00;;;;9962431;29;20237;-83
2024/03/14 18:31:17;;;;;;;2.13;1.65;;;;;15.20;100330.00;;;;9985962;29;20771;-83
2024/03/14 18:36:21;;;;;;;3.42;2.00;;;;;15.20;100332.00;;;;9958510;29;20226;-83
2024/03/14 18:41:22;;;;;;;2.35;1.70;;;;;15.10;100335.00;;;;9977991;29;20231;-83
2024/03/14 18:46:24;;;;;;;5.30;1.92;;;;;15.00;100339.00;;;;9949676;29;20673;-83
2024/03/14 18:51:26;;;;;;;2.85;1.75;;;;;14.90;100332.00;;;;9967620;29;20386;-82
2024/03/14 18:56:28;;;;;;;3.50;1.60;;;;;14.90;100336.00;;;;9979649;29;20229;-82
2024/03/14 19:01:30;;;;;;;3.80;2.03;;;;;14.80;100324.00;;;;9967784;29;20249;-82
2024/03/14 19:06:32;;;;;;;5.18;3.20;;;;;14.80;100310.00;;;;9984965;29;20240;-83
2024/03/14 19:11:33;;;;;;;6.65;3.17;;;;;14.80;100307.00;;;;9965255;29;20242;-81
2024/03/14 19:16:43;;;;;;;4.53;3.67;;;;;14.70;100306.00;;;;9979012;29;20225;-81
2024/03/14 19:21:45;;;;;;;5.43;3.90;;;;;14.70;100308.00;;;;9966333;29;20672;-80
2024/03/14 19:26:47;;;;;;;5.43;4.28;;;;;14.70;100300.00;;;;9971573;29;20317;-80
2024/03/14 19:31:52;;;;;;;5.32;4.07;;;;;14.60;100296.00;;;;9971119;29;20584;-80
2024/03/14 19:36:55;;;;;;;6.13;4.55;;;;;14.60;100302.00;;;;9967228;29;20227;-80
2024/03/14 19:41:57;;;;;;;6.35;4.72;;;;;14.60;100304.00;;;;9990718;29;20350;-82
2024/03/14 19:47:00;;;;;;;6.20;5.18;;;;;14.60;100309.00;;;;9989918;29;20272;-80
2024/03/14 19:52:02;;;;;;;8.23;5.53;;;;;14.60;100298.00;;;;9952392;29;20253;-81
2024/03/14 19:57:05;;;;;;;7.53;5.55;;;;;14.60;100298.00;;;;9964774;29;20240;-81
2024/03/14 20:02:08;;;;;;;6.50;5.72;;;;;14.60;100292.00;;;;9969177;29;20370;-80
2024/03/14 20:07:10;;;;;;;9.43;5.82;;;;;14.60;100305.00;;;;9988612;29;20244;-81
2024/03/14 20:12:11;;;;;;;7.50;5.93;;;;;14.60;100297.00;;;;9972564;29;20229;-82
2024/03/14 20:17:13;;;;;;;9.13;6.30;;;;;14.50;100297.00;;;;9955213;29;20229;-82
2024/03/14 20:22:16;;;;;;;9.27;6.65;;;;;14.50;100305.00;;;;9949982;29;20232;-81
2024/03/14 20:27:18;;;;;;;12.77;6.72;;;;;14.50;100294.00;;;;9960500;29;20229;-82
2024/03/14 20:32:21;;;;;;;8.80;6.30;;;;;14.40;100289.00;;;;9957346;29;20229;-81
2024/03/14 20:37:24;;;;;;;10.48;6.93;;;;;14.30;100297.00;;;;9958956;29;20324;-81
2024/03/14 20:42:31;;;;;;;16.98;10.02;;;;;14.20;100298.00;;;;9971589;29;20261;-81
2024/03/14 20:47:33;;;;;;;10.35;6.57;;;;;14.10;100295.00;;;;9951884;29;20273;-82
2024/03/14 20:52:35;;;;;;;9.13;6.97;;;;;13.90;100298.00;;;;9960853;29;20278;-82
2024/03/14 20:57:40;;;;;;;9.95;6.78;;;;;13.70;100292.00;;;;9974204;29;20890;-82
2024/03/14 21:02:42;;;;;;;8.27;6.22;;;;;13.60;100289.00;;;;9978691;29;20238;-82
2024/03/14 21:07:43;;;;;;;11.57;6.97;;;;;13.60;100288.00;;;;9961442;29;20281;-82
2024/03/14 21:12:44;;;;;;;8.70;6.00;;;;;13.70;100293.00;;;;9969182;29;20622;-82
2024/03/14 21:17:45;;;;;;;12.07;6.95;;;;;13.80;100295.00;;;;9964384;29;20225;-81
2024/03/14 21:22:47;;;;;;;9.32;5.93;;;;;13.90;100288.00;;;;9965177;29;20381;-81
2024/03/14 21:27:51;;;;;;;7.45;5.72;;;;;13.90;100288.00;;;;10000320;29;20311;-81
2024/03/14 21:32:53;;;;;;;7.10;4.70;;;;;14.00;100291.00;;;;9956438;29;20625;-81
2024/03/14 21:37:54;;;;;;;9.55;5.40;;;;;14.00;100286.00;;;;9987095;29;20233;-81
2024/03/14 21:42:55;;;;;;;6.85;4.90;;;;;14.00;100287.00;;;;9966844;29;20797;-81
2024/03/14 21:47:58;;;;;;;5.07;4.53;;;;;14.10;100291.00;;;;9982226;29;20934;-81
2024/03/14 21:52:59;;;;;;;9.63;5.25;;;;;14.10;100274.00;;;;9977658;29;20231;-82
2024/03/14 21:58:04;;;;;;;7.70;5.43;;;;;14.10;100274.00;;;;9998002;29;20684;-81
2024/03/14 22:03:06;;;;;;;5.53;4.25;;;;;14.10;100270.00;;;;9994701;29;20241;-82
2024/03/14 22:08:07;;;;;;;6.18;4.22;;;;;14.00;100264.00;;;;9974444;29;20230;-81
2024/03/14 22:13:10;;;;;;;6.82;4.18;;;;;13.90;100253.00;;;;10000353;29;20723;-82
2024/03/14 22:18:11;;;;;;;7.47;4.38;;;;;13.80;100257.00;;;;9966941;29;20285;-82
2024/03/14 22:23:19;;;;;;;6.13;3.60;;;;;13.60;100263.00;;;;9989078;29;20234;-83
2024/03/14 22:28:20;;;;;;;6.10;3.78;;;;;13.40;100261.00;;;;9954406;29;20241;-82
2024/03/14 22:33:23;;;;;;;5.35;4.13;;;;;13.30;100269.00;;;;9977007;29;20937;-82
2024/03/14 22:38:24;;;;;;;5.40;3.30;;;;;13.20;100265.00;;;;9966661;29;20321;-83
2024/03/14 22:43:27;;;;;;;6.25;3.67;;;;;13.20;100260.00;;;;9995501;29;20234;-85
2024/03/14 22:48:28;;;;;;;7.75;3.63;;;;;13.00;100251.00;;;;9969913;29;20238;-84
2024/03/14 22:53:29;;;;;;;8.37;4.17;;;;;13.00;100241.00;;;;9989297;29;20240;-84
2024/03/14 22:58:31;;;;;;;7.23;4.30;;;;;12.90;100242.00;;;;9962091;29;20225;-85
2024/03/14 23:03:32;;;;;;;7.97;3.73;;;;;12.80;100235.00;;;;9971268;29;20316;-86
2024/03/14 23:08:33;;;;;;;5.83;3.87;;;;;12.90;100235.00;;;;9953507;29;20704;-86
2024/03/14 23:13:36;;;;;;;6.20;4.07;;;;;12.90;100238.00;;;;9968267;29;20236;-84
2024/03/14 23:18:38;;;;;;;6.15;3.33;;;;;12.90;100231.00;;;;9957767;29;20229;-84
2024/03/14 23:23:39;;;;;;;6.85;3.60;;;;;13.00;100244.00;;;;9995164;29;20249;-85
2024/03/14 23:28:41;;;;;;;5.00;3.33;;;;;13.10;100248.00;;;;10001663;29;20241;-84
2024/03/14 23:33:44;;;;;;;4.37;3.20;;;;;13.00;100232.00;;;;9958872;29;20260;-85
2024/03/14 23:38:45;;;;;;;5.23;3.60;;;;;12.90;100222.00;;;;9969638;29;20230;-85
2024/03/14 23:43:47;;;;;;;6.23;3.60;;;;;12.80;100227.00;;;;9987653;29;20233;-85
2024/03/14 23:48:48;;;;;;;7.53;3.73;;;;;12.80;100225.00;;;;9954913;29;20306;-81
2024/03/14 23:53:50;;;;;;;7.50;3.93;;;;;12.70;100224.00;;;;9979053;29;20316;-81
2024/03/14 23:58:51;;;;;;;7.90;3.80;;;;;12.80;100217.00;;;;9958798;29;20241;-82
